createdAt,value
2023-04-02T00:00:09.884Z,99318.03
2023-04-02T00:03:04.747Z,99326.03
2023-04-02T00:05:51.666Z,99326.34
2023-04-02T00:08:25.617Z,99327.91
2023-04-02T00:11:01.890Z,99336.16
2023-04-02T00:13:37.657Z,99338.69
2023-04-02T00:16:08.156Z,99330.66
2023-04-02T00:18:40.480Z,99327.72
2023-04-02T00:21:14.333Z,99324.75
2023-04-02T00:23:43.971Z,99329.94
2023-04-02T00:26:38.615Z,99335.69
2023-04-02T00:29:06.509Z,99336.44
2023-04-02T00:31:37.502Z,99326.63
2023-04-02T00:34:04.929Z,99324.94
2023-04-02T00:36:34.262Z,99332.63
2023-04-02T00:39:04.830Z,99325.75
2023-04-02T00:41:36.309Z,99323.22
2023-04-02T00:44:03.797Z,99329.00
2023-04-02T00:46:46.674Z,99331.34
2023-04-02T00:49:35.396Z,99339.47
2023-04-02T00:52:07.268Z,99333.34
2023-04-02T00:54:42.624Z,99338.22
2023-04-02T00:57:21.844Z,99340.00
2023-04-02T00:59:57.111Z,99342.63
2023-04-02T01:02:33.813Z,99347.81
2023-04-02T01:05:23.268Z,99342.53
2023-04-02T01:07:57.181Z,99347.16
2023-04-02T01:10:39.124Z,99337.47
2023-04-02T01:13:15.054Z,99345.88
2023-04-02T01:15:51.048Z,99347.16
2023-04-02T01:18:31.442Z,99344.97
2023-04-02T01:21:30.480Z,99347.59
2023-04-02T01:24:06.137Z,99348.00
2023-04-02T01:26:57.669Z,99348.00
2023-04-02T01:29:26.511Z,99348.47
2023-04-02T01:31:55.985Z,99340.88
2023-04-02T01:34:27.262Z,99340.03
2023-04-02T01:37:27.429Z,99344.47
2023-04-02T01:40:06.524Z,99342.88
2023-04-02T01:42:53.653Z,99351.94
2023-04-02T01:45:22.489Z,99350.75
2023-04-02T01:47:50.023Z,99341.06
2023-04-02T01:50:20.141Z,99355.91
2023-04-02T01:52:50.479Z,99353.28
2023-04-02T01:55:24.614Z,99350.88
2023-04-02T01:57:54.378Z,99353.41
2023-04-02T02:00:22.565Z,99358.66
2023-04-02T02:02:51.583Z,99360.69
2023-04-02T02:05:23.027Z,99360.88
2023-04-02T02:07:51.129Z,99362.56
2023-04-02T02:10:26.177Z,99365.69
2023-04-02T02:12:53.237Z,99356.13
2023-04-02T02:15:23.767Z,99365.06
2023-04-02T02:17:54.745Z,99366.53
2023-04-02T02:20:22.652Z,99366.13
2023-04-02T02:22:51.448Z,99369.47
2023-04-02T02:25:24.975Z,99365.91
2023-04-02T02:28:24.060Z,99367.19
2023-04-02T02:30:57.630Z,99363.06
2023-04-02T02:33:32.686Z,99368.63
2023-04-02T02:36:06.337Z,99372.88
2023-04-02T02:38:54.896Z,99374.84
2023-04-02T02:42:00.281Z,99370.53
2023-04-02T02:44:35.260Z,99368.56
2023-04-02T02:47:19.671Z,99371.81
2023-04-02T02:49:51.361Z,99365.28
2023-04-02T02:52:38.158Z,99376.03
2023-04-02T02:55:08.171Z,99378.03
2023-04-02T02:57:40.389Z,99372.34
2023-04-02T03:00:11.653Z,99371.41
2023-04-02T03:02:41.704Z,99373.72
2023-04-02T03:05:09.179Z,99368.47
2023-04-02T03:07:37.427Z,99371.31
2023-04-02T03:10:25.093Z,99371.09
2023-04-02T03:13:02.317Z,99377.09
2023-04-02T03:15:38.832Z,99372.75
2023-04-02T03:18:28.744Z,99381.41
2023-04-02T03:21:16.703Z,99375.94
2023-04-02T03:23:50.940Z,99381.19
2023-04-02T03:26:40.742Z,99385.59
2023-04-02T03:29:16.702Z,99389.81
2023-04-02T03:32:02.309Z,99389.19
2023-04-02T03:34:36.017Z,99388.47
2023-04-02T03:37:21.270Z,99378.66
2023-04-02T03:40:00.403Z,99385.59
2023-04-02T03:42:37.164Z,99380.56
2023-04-02T03:45:15.050Z,99382.97
2023-04-02T03:48:33.793Z,99383.50
2023-04-02T03:51:08.526Z,99380.75
2023-04-02T03:53:35.377Z,99392.63
2023-04-02T03:56:02.631Z,99387.59
2023-04-02T03:58:42.994Z,99393.03
2023-04-02T04:01:34.518Z,99391.16
2023-04-02T04:04:13.456Z,99398.13
2023-04-02T04:06:46.375Z,99414.91
2023-04-02T04:09:31.909Z,99401.78
2023-04-02T04:12:17.173Z,99406.19
2023-04-02T04:14:52.442Z,99412.50
2023-04-02T04:17:51.258Z,99409.34
2023-04-02T04:20:24.080Z,99409.91
2023-04-02T04:22:55.939Z,99415.88
2023-04-02T04:25:34.038Z,99414.53
2023-04-02T04:28:16.617Z,99415.56
2023-04-02T04:30:52.859Z,99413.56
2023-04-02T04:33:29.045Z,99416.09
2023-04-02T04:35:59.331Z,99422.72
2023-04-02T04:38:39.572Z,99422.72
2023-04-02T04:41:16.850Z,99432.28
2023-04-02T04:43:55.289Z,99423.44
2023-04-02T04:46:41.337Z,99427.97
2023-04-02T04:49:27.932Z,99427.75
2023-04-02T04:52:15.395Z,99426.69
2023-04-02T04:54:42.515Z,99425.25
2023-04-02T04:57:39.158Z,99431.13
2023-04-02T05:00:15.781Z,99422.41
2023-04-02T05:02:53.665Z,99416.44
2023-04-02T05:05:27.293Z,99427.47
2023-04-02T05:08:00.898Z,99431.38
2023-04-02T05:10:33.776Z,99428.31
2023-04-02T05:13:19.074Z,99434.09
2023-04-02T05:15:56.178Z,99425.28
2023-04-02T05:18:28.713Z,99437.50
2023-04-02T05:21:07.847Z,99443.19
2023-04-02T05:23:44.849Z,99436.63
2023-04-02T05:26:37.852Z,99430.53
2023-04-02T05:29:39.229Z,99439.47
2023-04-02T05:32:21.193Z,99441.75
2023-04-02T05:34:53.168Z,99438.81
2023-04-02T05:37:23.153Z,99436.06
2023-04-02T05:39:54.275Z,99448.03
2023-04-02T05:42:28.191Z,99448.34
2023-04-02T05:45:08.701Z,99444.38
2023-04-02T05:47:41.224Z,99457.16
2023-04-02T05:50:08.500Z,99456.84
2023-04-02T05:52:57.302Z,99457.44
2023-04-02T05:55:35.907Z,99459.72
2023-04-02T05:58:34.709Z,99470.25
2023-04-02T06:01:33.632Z,99473.34
2023-04-02T06:04:22.021Z,99472.03
2023-04-02T06:07:10.119Z,99475.22
2023-04-02T06:09:51.963Z,99472.66
2023-04-02T06:12:44.671Z,99477.00
2023-04-02T06:15:23.668Z,99473.75
2023-04-02T06:18:00.601Z,99476.69
2023-04-02T06:20:28.581Z,99477.81
2023-04-02T06:23:11.655Z,99477.34
2023-04-02T06:25:48.400Z,99471.59
2023-04-02T06:28:24.709Z,99478.94
2023-04-02T06:30:56.277Z,99471.50
2023-04-02T06:33:23.183Z,99471.63
2023-04-02T06:35:51.803Z,99491.31
2023-04-02T06:38:26.796Z,99482.06
2023-04-02T06:41:02.041Z,99489.66
2023-04-02T06:43:36.195Z,99488.81
2023-04-02T06:46:11.165Z,99497.22
2023-04-02T06:48:42.057Z,99491.56
2023-04-02T06:51:12.945Z,99498.75
2023-04-02T06:53:50.483Z,99498.34
2023-04-02T06:56:29.724Z,99491.94
2023-04-02T06:58:56.594Z,99507.22
2023-04-02T07:01:29.173Z,99511.91
2023-04-02T07:03:57.043Z,99497.63
2023-04-02T07:06:24.112Z,99500.53
2023-04-02T07:08:51.329Z,99505.88
2023-04-02T07:11:21.908Z,99502.78
2023-04-02T07:13:50.153Z,99505.19
2023-04-02T07:16:25.368Z,99495.19
2023-04-02T07:18:55.324Z,99498.31
2023-04-02T07:21:22.752Z,99503.75
2023-04-02T07:23:49.604Z,99504.72
2023-04-02T07:26:20.296Z,99510.63
2023-04-02T07:28:47.097Z,99514.63
2023-04-02T07:31:19.999Z,99514.03
2023-04-02T07:33:47.221Z,99515.34
2023-04-02T07:36:20.089Z,99520.75
2023-04-02T07:38:47.694Z,99521.72
2023-04-02T07:41:15.627Z,99517.66
2023-04-02T07:43:42.876Z,99528.63
2023-04-02T07:46:10.860Z,99532.16
2023-04-02T07:48:37.746Z,99536.75
2023-04-02T07:51:05.067Z,99536.41
2023-04-02T07:53:34.470Z,99535.06
2023-04-02T07:56:03.473Z,99547.34
2023-04-02T07:58:32.043Z,99552.63
2023-04-02T08:01:00.282Z,99540.72
2023-04-02T08:03:27.867Z,99548.44
2023-04-02T08:05:57.157Z,99539.44
2023-04-02T08:08:25.045Z,99553.88
2023-04-02T08:10:52.137Z,99543.66
2023-04-02T08:13:19.204Z,99554.22
2023-04-02T08:15:46.460Z,99553.84
2023-04-02T08:18:13.267Z,99558.63
2023-04-02T08:20:40.379Z,99550.50
2023-04-02T08:23:15.419Z,99551.06
2023-04-02T08:25:42.647Z,99560.75
2023-04-02T08:28:09.547Z,99556.63
2023-04-02T08:30:37.322Z,99562.97
2023-04-02T08:33:04.553Z,99569.94
2023-04-02T08:35:31.661Z,99559.53
2023-04-02T08:37:59.171Z,99571.75
2023-04-02T08:40:34.401Z,99583.34
2023-04-02T08:43:28.856Z,99573.38
2023-04-02T08:46:10.345Z,99567.53
2023-04-02T08:48:42.616Z,99572.63
2023-04-02T08:51:36.883Z,99569.09
2023-04-02T08:54:13.605Z,99574.31
2023-04-02T08:56:44.605Z,99577.47
2023-04-02T08:59:37.787Z,99571.03
2023-04-02T09:02:40.806Z,99573.63
2023-04-02T09:05:16.048Z,99574.78
2023-04-02T09:07:43.204Z,99571.91
2023-04-02T09:10:17.305Z,99572.47
2023-04-02T09:12:50.564Z,99576.56
2023-04-02T09:15:34.156Z,99586.09
2023-04-02T09:18:17.489Z,99579.94
2023-04-02T09:20:44.922Z,99581.06
2023-04-02T09:23:19.798Z,99578.41
2023-04-02T09:26:03.646Z,99571.66
2023-04-02T09:28:32.280Z,99575.31
2023-04-02T09:31:37.798Z,99588.44
2023-04-02T09:34:29.876Z,99597.66
2023-04-02T09:36:57.569Z,99599.84
2023-04-02T09:39:28.384Z,99606.19
2023-04-02T09:42:05.485Z,99597.56
2023-04-02T09:44:33.862Z,99604.75
2023-04-02T09:47:07.006Z,99614.22
2023-04-02T09:49:39.369Z,99615.00
2023-04-02T09:52:18.094Z,99609.88
2023-04-02T09:54:45.950Z,99608.75
2023-04-02T09:57:25.131Z,99608.69
2023-04-02T10:00:29.916Z,99612.13
2023-04-02T10:03:23.133Z,99606.13
2023-04-02T10:06:13.958Z,99608.19
2023-04-02T10:08:43.191Z,99606.56
2023-04-02T10:11:15.030Z,99612.63
2023-04-02T10:13:59.994Z,99611.50
2023-04-02T10:16:39.222Z,99607.63
2023-04-02T10:19:29.056Z,99608.16
2023-04-02T10:21:58.064Z,99604.91
2023-04-02T10:24:28.414Z,99611.66
2023-04-02T10:27:11.433Z,99601.56
2023-04-02T10:30:02.190Z,99609.41
2023-04-02T10:32:54.820Z,99607.31
2023-04-02T10:35:33.180Z,99605.75
2023-04-02T10:38:38.807Z,99598.25
2023-04-02T10:41:21.207Z,99598.00
2023-04-02T10:44:20.523Z,99598.41
2023-04-02T10:46:47.892Z,99595.31
2023-04-02T10:49:20.941Z,99594.06
2023-04-02T10:51:53.291Z,99590.31
2023-04-02T10:54:27.990Z,99590.69
2023-04-02T10:57:00.692Z,99591.81
2023-04-02T10:59:33.710Z,99584.56
2023-04-02T11:02:06.722Z,99586.91
2023-04-02T11:04:45.499Z,99591.66
2023-04-02T11:07:23.783Z,99584.41
2023-04-02T11:09:53.610Z,99589.66
2023-04-02T11:12:29.498Z,99597.66
2023-04-02T11:14:57.116Z,99595.22
2023-04-02T11:17:24.890Z,99593.81
2023-04-02T11:19:52.792Z,99586.53
2023-04-02T11:22:25.969Z,99589.84
2023-04-02T11:24:57.340Z,99588.78
2023-04-02T11:27:31.403Z,99588.69
2023-04-02T11:30:16.723Z,99581.72
2023-04-02T11:32:47.398Z,99581.56
2023-04-02T11:35:24.139Z,99577.16
2023-04-02T11:37:51.294Z,99572.53
2023-04-02T11:40:18.301Z,99576.31
2023-04-02T11:42:47.446Z,99577.97
2023-04-02T11:45:23.379Z,99571.50
2023-04-02T11:48:03.775Z,99576.84
2023-04-02T11:50:39.379Z,99578.03
2023-04-02T11:53:22.872Z,99566.50
2023-04-02T11:56:10.037Z,99578.84
2023-04-02T11:59:21.326Z,99565.13
2023-04-02T12:02:18.232Z,99561.97
2023-04-02T12:05:04.528Z,99564.63
2023-04-02T12:07:52.442Z,99562.78
2023-04-02T12:10:51.506Z,99569.00
2023-04-02T12:13:41.293Z,99561.16
2023-04-02T12:16:13.086Z,99557.81
2023-04-02T12:18:48.341Z,99552.78
2023-04-02T12:21:18.055Z,99554.44
2023-04-02T12:23:48.796Z,99550.44
2023-04-02T12:26:24.615Z,99549.13
2023-04-02T12:28:51.641Z,99545.19
2023-04-02T12:31:22.291Z,99559.25
2023-04-02T12:33:52.870Z,99532.84
2023-04-02T12:36:23.034Z,99534.94
2023-04-02T12:38:59.336Z,99537.97
2023-04-02T12:41:32.311Z,99544.06
2023-04-02T12:44:03.561Z,99529.91
2023-04-02T12:46:32.151Z,99524.78
2023-04-02T12:49:20.814Z,99527.34
2023-04-02T12:51:48.797Z,99537.91
2023-04-02T12:54:20.990Z,99541.69
2023-04-02T12:56:49.460Z,99535.63
2023-04-02T12:59:36.399Z,99527.44
2023-04-02T13:02:20.152Z,99532.63
2023-04-02T13:04:52.709Z,99535.31
2023-04-02T13:07:22.621Z,99524.47
2023-04-02T13:09:55.194Z,99536.59
2023-04-02T13:12:35.495Z,99527.53
2023-04-02T13:15:28.302Z,99522.00
2023-04-02T13:18:13.272Z,99537.28
2023-04-02T13:20:42.127Z,99529.41
2023-04-02T13:23:31.512Z,99526.56
2023-04-02T13:26:08.890Z,99532.19
2023-04-02T13:28:36.044Z,99532.63
2023-04-02T13:31:03.121Z,99541.03
2023-04-02T13:33:30.019Z,99533.88
2023-04-02T13:35:57.128Z,99537.63
2023-04-02T13:38:23.910Z,99532.03
2023-04-02T13:40:51.745Z,99529.50
2023-04-02T13:43:20.640Z,99546.72
2023-04-02T13:45:51.676Z,99548.25
2023-04-02T13:48:18.740Z,99554.41
2023-04-02T13:50:46.687Z,99535.75
2023-04-02T13:53:25.578Z,99540.28
2023-04-02T13:55:53.573Z,99524.31
2023-04-02T13:58:20.476Z,99520.81
2023-04-02T14:00:47.912Z,99527.59
2023-04-02T14:03:22.415Z,99526.09
2023-04-02T14:06:08.425Z,99526.72
2023-04-02T14:08:44.260Z,99520.84
2023-04-02T14:11:11.259Z,99531.06
2023-04-02T14:13:59.273Z,99532.13
2023-04-02T14:16:44.569Z,99527.88
2023-04-02T14:19:29.870Z,99530.53
2023-04-02T14:22:06.180Z,99542.56
2023-04-02T14:25:06.624Z,99537.81
2023-04-02T14:27:45.961Z,99538.63
2023-04-02T14:30:27.370Z,99543.28
2023-04-02T14:33:19.358Z,99553.88
2023-04-02T14:35:50.853Z,99559.63
2023-04-02T14:38:43.933Z,99581.19
2023-04-02T14:41:22.131Z,99582.06
2023-04-02T14:43:58.191Z,99590.97
2023-04-02T14:46:27.413Z,99591.13
2023-04-02T14:48:57.532Z,99595.47
2023-04-02T14:51:38.154Z,99597.00
2023-04-02T14:54:23.680Z,99613.00
2023-04-02T14:57:21.529Z,99632.28
2023-04-02T15:00:04.079Z,99632.88
2023-04-02T15:02:53.060Z,99638.94
2023-04-02T15:05:48.614Z,99641.63
2023-04-02T15:08:29.672Z,99651.22
2023-04-02T15:11:06.585Z,99646.94
2023-04-02T15:14:13.653Z,99661.91
2023-04-02T15:16:41.635Z,99664.72
2023-04-02T15:19:18.925Z,99670.13
2023-04-02T15:22:08.731Z,99674.50
2023-04-02T15:24:57.752Z,99678.06
2023-04-02T15:27:46.920Z,99684.84
2023-04-02T15:30:43.050Z,99688.16
2023-04-02T15:33:35.967Z,99684.66
2023-04-02T15:36:33.281Z,99690.78
2023-04-02T15:39:15.576Z,99676.44
2023-04-02T15:42:06.194Z,99686.28
2023-04-02T15:44:36.561Z,99695.63
2023-04-02T15:47:03.298Z,99682.53
2023-04-02T15:50:01.496Z,99684.91
2023-04-02T15:52:43.131Z,99671.03
2023-04-02T15:55:33.146Z,99663.44
2023-04-02T15:58:08.732Z,99669.53
2023-04-02T16:01:09.137Z,99675.59
2023-04-02T16:03:53.054Z,99668.44
2023-04-02T16:06:25.712Z,99662.97
2023-04-02T16:09:30.950Z,99662.00
2023-04-02T16:12:13.916Z,99661.13
2023-04-02T16:14:45.477Z,99659.53
2023-04-02T16:17:24.919Z,99665.81
2023-04-02T16:19:57.173Z,99664.41
2023-04-02T16:22:30.500Z,99669.84
2023-04-02T16:25:19.563Z,99672.22
2023-04-02T16:27:55.876Z,99681.56
2023-04-02T16:30:28.790Z,99688.72
2023-04-02T16:33:03.276Z,99698.84
2023-04-02T16:35:48.622Z,99699.25
2023-04-02T16:38:48.071Z,99714.94
2023-04-02T16:41:35.292Z,99710.03
2023-04-02T16:44:20.699Z,99711.59
2023-04-02T16:47:02.559Z,99715.69
2023-04-02T16:49:38.515Z,99715.13
2023-04-02T16:52:35.405Z,99714.16
2023-04-02T16:55:09.648Z,99722.97
2023-04-02T16:57:54.730Z,99724.41
2023-04-02T17:00:24.968Z,99718.13
2023-04-02T17:03:10.654Z,99722.59
2023-04-02T17:05:58.290Z,99735.56
2023-04-02T17:08:29.792Z,99739.78
2023-04-02T17:11:08.012Z,99744.44
2023-04-02T17:13:46.922Z,99749.09
2023-04-02T17:16:20.722Z,99755.22
2023-04-02T17:18:51.391Z,99750.56
2023-04-02T17:21:26.407Z,99756.88
2023-04-02T17:24:06.430Z,99754.94
2023-04-02T17:26:37.649Z,99766.19
2023-04-02T17:29:09.459Z,99762.75
2023-04-02T17:31:38.029Z,99772.22
2023-04-02T17:34:14.039Z,99770.13
2023-04-02T17:36:48.981Z,99783.00
2023-04-02T17:39:20.519Z,99792.03
2023-04-02T17:42:06.086Z,99791.00
2023-04-02T17:44:35.642Z,99800.31
2023-04-02T17:47:17.860Z,99802.31
2023-04-02T17:50:04.898Z,99807.28
2023-04-02T17:52:56.727Z,99823.22
2023-04-02T17:55:40.844Z,99822.78
2023-04-02T17:58:17.046Z,99824.03
2023-04-02T18:00:59.665Z,99822.31
2023-04-02T18:03:35.671Z,99830.63
2023-04-02T18:06:18.826Z,99832.81
2023-04-02T18:09:01.981Z,99830.19
2023-04-02T18:11:55.291Z,99844.69
2023-04-02T18:14:33.454Z,99847.44
2023-04-02T18:17:30.405Z,99851.38
2023-04-02T18:20:19.487Z,99851.47
2023-04-02T18:23:04.009Z,99870.78
2023-04-02T18:25:54.218Z,99871.63
2023-04-02T18:28:31.884Z,99883.78
2023-04-02T18:31:24.323Z,99887.38
2023-04-02T18:34:06.385Z,99888.13
2023-04-02T18:36:45.612Z,99889.44
2023-04-02T18:39:17.308Z,99893.47
2023-04-02T18:42:02.967Z,99892.44
2023-04-02T18:44:29.801Z,99892.91
2023-04-02T18:47:14.241Z,99911.06
2023-04-02T18:49:49.580Z,99904.66
2023-04-02T18:52:18.619Z,99906.22
2023-04-02T18:55:07.306Z,99919.59
2023-04-02T18:57:39.019Z,99919.88
2023-04-02T19:00:31.339Z,99915.63
2023-04-02T19:03:18.589Z,99919.69
2023-04-02T19:05:56.632Z,99927.19
2023-04-02T19:08:32.978Z,99932.44
2023-04-02T19:11:05.261Z,99932.31
2023-04-02T19:13:32.378Z,99931.56
2023-04-02T19:16:17.766Z,99941.78
2023-04-02T19:19:12.065Z,99944.75
2023-04-02T19:22:03.274Z,99947.72
2023-04-02T19:24:49.079Z,99939.59
2023-04-02T19:27:33.870Z,99957.06
2023-04-02T19:30:16.810Z,99957.59
2023-04-02T19:33:11.067Z,99967.59
2023-04-02T19:36:10.447Z,99972.91
2023-04-02T19:38:46.426Z,99978.97
2023-04-02T19:41:13.461Z,99983.28
2023-04-02T19:43:40.389Z,99986.16
2023-04-02T19:46:07.649Z,99994.81
2023-04-02T19:48:46.893Z,99991.41
2023-04-02T19:51:13.983Z,99998.19
2023-04-02T19:53:42.157Z,99995.31
2023-04-02T19:56:09.302Z,100010.38
2023-04-02T19:58:36.334Z,100010.81
2023-04-02T20:01:03.806Z,100015.13
2023-04-02T20:03:31.857Z,100011.22
2023-04-02T20:06:00.003Z,100020.88
2023-04-02T20:08:28.019Z,100019.47
2023-04-02T20:10:56.084Z,100030.50
2023-04-02T20:13:22.889Z,100036.31
2023-04-02T20:15:51.408Z,100039.88
2023-04-02T20:18:20.250Z,100039.44
2023-04-02T20:20:48.971Z,100044.94
2023-04-02T20:23:17.160Z,100047.31
2023-04-02T20:25:53.063Z,100041.22
2023-04-02T20:28:23.649Z,100056.75
2023-04-02T20:30:51.517Z,100052.34
2023-04-02T20:33:21.403Z,100053.34
2023-04-02T20:35:50.677Z,100060.38
2023-04-02T20:38:18.237Z,100056.75
2023-04-02T20:40:52.074Z,100066.31
2023-04-02T20:43:18.979Z,100067.00
2023-04-02T20:45:55.216Z,100072.34
2023-04-02T20:48:25.818Z,100081.56
2023-04-02T20:50:53.360Z,100095.28
2023-04-02T20:53:20.976Z,100097.44
2023-04-02T20:55:48.064Z,100103.09
2023-04-02T20:58:17.148Z,100096.19
2023-04-02T21:00:45.346Z,100105.34
2023-04-02T21:03:12.628Z,100107.44
2023-04-02T21:05:47.180Z,100097.31
2023-04-02T21:08:17.016Z,100104.81
2023-04-02T21:10:44.050Z,100104.28
2023-04-02T21:13:10.813Z,100111.56
2023-04-02T21:15:42.994Z,100111.88
2023-04-02T21:18:09.941Z,100114.50
2023-04-02T21:20:37.058Z,100118.44
2023-04-02T21:23:03.864Z,100120.22
2023-04-02T21:25:30.956Z,100125.53
2023-04-02T21:27:57.772Z,100128.63
2023-04-02T21:30:24.857Z,100130.09
2023-04-02T21:32:51.717Z,100129.09
2023-04-02T21:35:18.827Z,100133.56
2023-04-02T21:37:45.708Z,100130.63
2023-04-02T21:40:12.817Z,100133.56
2023-04-02T21:42:39.616Z,100134.94
2023-04-02T21:45:07.054Z,100147.94
2023-04-02T21:47:33.929Z,100147.31
2023-04-02T21:50:01.051Z,100150.25
2023-04-02T21:52:27.871Z,100152.72
2023-04-02T21:54:54.969Z,100160.03
2023-04-02T21:57:21.770Z,100162.44
2023-04-02T21:59:48.901Z,100162.44
2023-04-02T22:02:15.797Z,100160.19
2023-04-02T22:04:42.955Z,100160.06
2023-04-02T22:07:09.812Z,100169.72
2023-04-02T22:09:36.860Z,100171.56
2023-04-02T22:12:03.840Z,100174.97
2023-04-02T22:14:31.002Z,100176.97
2023-04-02T22:17:00.786Z,100173.63
2023-04-02T22:19:28.126Z,100176.22
2023-04-02T22:21:56.317Z,100178.03
2023-04-02T22:24:23.390Z,100187.53
2023-04-02T22:26:51.028Z,100183.28
2023-04-02T22:29:18.119Z,100191.16
2023-04-02T22:31:45.151Z,100189.69
2023-04-02T22:34:12.630Z,100196.16
2023-04-02T22:36:39.498Z,100188.91
2023-04-02T22:39:10.247Z,100196.84
2023-04-02T22:41:37.220Z,100196.78
2023-04-02T22:44:04.582Z,100206.44
2023-04-02T22:46:31.704Z,100202.41
2023-04-02T22:48:59.175Z,100205.53
2023-04-02T22:51:28.044Z,100206.38
2023-04-02T22:53:57.960Z,100209.16
2023-04-02T22:56:27.606Z,100218.16
2023-04-02T22:58:54.883Z,100217.41
2023-04-02T23:01:27.730Z,100224.47
2023-04-02T23:03:55.930Z,100215.81
2023-04-02T23:06:24.218Z,100223.81
2023-04-02T23:08:52.250Z,100224.19
2023-04-02T23:11:24.376Z,100223.13
2023-04-02T23:13:53.636Z,100229.28
2023-04-02T23:16:21.401Z,100231.19
2023-04-02T23:18:49.040Z,100231.00
2023-04-02T23:21:16.881Z,100231.91
2023-04-02T23:23:44.451Z,100232.69
2023-04-02T23:26:14.036Z,100230.16
2023-04-02T23:28:41.855Z,100233.97
2023-04-02T23:31:13.453Z,100236.78
2023-04-02T23:33:40.603Z,100232.47
2023-04-02T23:36:13.643Z,100236.03
2023-04-02T23:38:40.898Z,100233.78
2023-04-02T23:41:07.724Z,100235.38
2023-04-02T23:43:34.784Z,100238.69
2023-04-02T23:46:01.931Z,100238.22
2023-04-02T23:48:29.024Z,100240.22
2023-04-02T23:50:55.825Z,100237.38
2023-04-02T23:53:23.193Z,100247.00
2023-04-02T23:55:49.988Z,100246.34
2023-04-02T23:58:17.141Z,100256.88
